createdAt,value
2022-09-28T00:01:15.263Z,10.10
2022-09-28T00:03:42.282Z,10.10
2022-09-28T00:06:12.583Z,9.00
2022-09-28T00:08:39.854Z,6.70
2022-09-28T00:11:08.278Z,21.50
2022-09-28T00:13:35.258Z,8.20
2022-09-28T00:16:08.220Z,7.90
2022-09-28T00:18:36.229Z,8.00
2022-09-28T00:21:08.549Z,8.80
2022-09-28T00:23:56.327Z,10.00
2022-09-28T00:26:23.920Z,10.20
2022-09-28T00:28:54.867Z,9.60
2022-09-28T00:31:22.437Z,8.30
2022-09-28T00:33:53.042Z,7.60
2022-09-28T00:36:20.048Z,7.40
2022-09-28T00:38:46.856Z,7.80
2022-09-28T00:41:14.040Z,8.40
2022-09-28T00:43:41.228Z,11.70
2022-09-28T00:46:24.454Z,11.20
2022-09-28T00:49:07.528Z,10.20
2022-09-28T00:51:36.138Z,13.40
2022-09-28T00:54:07.521Z,13.20
2022-09-28T00:56:38.026Z,13.20
2022-09-28T00:59:05.137Z,13.70
2022-09-28T01:01:31.964Z,13.80
2022-09-28T01:03:59.648Z,15.50
2022-09-28T01:06:31.066Z,15.90
2022-09-28T01:09:03.044Z,17.00
2022-09-28T01:11:35.188Z,17.60
2022-09-28T01:14:02.511Z,19.10
2022-09-28T01:16:58.882Z,19.20
2022-09-28T01:19:55.385Z,20.50
2022-09-28T01:22:40.122Z,22.50
2022-09-28T01:25:34.855Z,50.90
2022-09-28T01:28:09.132Z,55.00
2022-09-28T01:30:47.775Z,63.60
2022-09-28T01:33:22.375Z,87.60
2022-09-28T01:36:22.778Z,99.90
2022-09-28T01:39:03.031Z,99.90
2022-09-28T01:41:31.968Z,99.90
2022-09-28T01:44:02.995Z,99.90
2022-09-28T01:46:44.933Z,99.90
2022-09-28T01:49:18.004Z,99.90
2022-09-28T01:52:07.737Z,99.90
2022-09-28T01:54:40.370Z,99.90
2022-09-28T01:57:32.458Z,99.90
2022-09-28T02:00:07.230Z,99.90
2022-09-28T02:02:43.134Z,99.90
2022-09-28T02:05:17.426Z,99.90
2022-09-28T02:07:59.692Z,99.90
2022-09-28T02:10:42.536Z,99.90
2022-09-28T02:13:16.243Z,99.90
2022-09-28T02:15:52.926Z,99.90
2022-09-28T02:18:20.083Z,99.90
2022-09-28T02:20:56.207Z,99.90
2022-09-28T02:23:26.658Z,99.90
2022-09-28T02:26:05.411Z,99.90
2022-09-28T02:28:32.347Z,99.90
2022-09-28T02:30:59.230Z,99.90
2022-09-28T02:33:37.200Z,99.90
2022-09-28T02:36:04.330Z,99.90
2022-09-28T02:38:31.974Z,99.90
2022-09-28T02:41:13.554Z,99.90
2022-09-28T02:43:55.420Z,99.90
2022-09-28T02:46:22.226Z,99.90
2022-09-28T02:49:05.022Z,99.90
2022-09-28T02:52:05.496Z,99.90
2022-09-28T02:54:53.943Z,99.90
2022-09-28T02:57:30.777Z,99.90
2022-09-28T03:00:20.115Z,99.90
2022-09-28T03:02:46.860Z,99.90
2022-09-28T03:05:37.472Z,99.90
2022-09-28T03:08:11.745Z,99.90
2022-09-28T03:10:47.767Z,99.90
2022-09-28T03:13:16.524Z,99.90
2022-09-28T03:15:48.572Z,99.90
2022-09-28T03:18:16.920Z,99.90
2022-09-28T03:20:43.854Z,99.90
2022-09-28T03:23:26.121Z,99.90
2022-09-28T03:25:53.037Z,99.90
2022-09-28T03:28:21.297Z,99.90
2022-09-28T03:30:48.130Z,99.90
2022-09-28T03:33:15.070Z,99.90
2022-09-28T03:35:42.075Z,99.90
2022-09-28T03:38:08.932Z,99.90
2022-09-28T03:40:35.867Z,99.90
2022-09-28T03:43:02.679Z,99.90
2022-09-28T03:45:29.528Z,99.90
2022-09-28T03:47:56.358Z,99.90
2022-09-28T03:50:23.138Z,99.90
2022-09-28T03:52:49.927Z,99.90
2022-09-28T03:55:16.825Z,99.90
2022-09-28T03:57:43.630Z,99.90
2022-09-28T04:00:11.287Z,99.90
2022-09-28T04:02:38.160Z,99.90
2022-09-28T04:05:05.313Z,99.90
2022-09-28T04:07:32.132Z,99.90
2022-09-28T04:09:59.035Z,99.90
2022-09-28T04:12:25.834Z,99.90
2022-09-28T04:14:52.630Z,1.00
2022-09-28T04:17:19.552Z,1.00
2022-09-28T04:19:47.469Z,1.00
2022-09-28T04:22:14.355Z,1.00
2022-09-28T04:24:43.544Z,1.00
2022-09-28T04:27:28.966Z,1.00
2022-09-28T04:29:55.813Z,1.00
2022-09-28T04:32:22.836Z,1.00
2022-09-28T04:34:49.632Z,1.00
2022-09-28T04:37:16.422Z,1.00
2022-09-28T04:39:48.031Z,1.00
2022-09-28T04:42:15.879Z,1.00
2022-09-28T04:44:42.808Z,1.00
2022-09-28T04:47:09.944Z,99.90
2022-09-28T04:49:38.393Z,99.90
2022-09-28T04:52:05.663Z,1.00
2022-09-28T04:54:32.447Z,99.90
2022-09-28T04:56:59.506Z,1.00
2022-09-28T04:59:26.346Z,1.00
2022-09-28T05:01:54.185Z,86.20
2022-09-28T05:04:25.582Z,99.90
2022-09-28T05:06:52.876Z,1.00
2022-09-28T05:09:19.700Z,1.00
2022-09-28T05:11:46.498Z,97.60
2022-09-28T05:14:13.457Z,99.90
2022-09-28T05:16:40.311Z,99.90
2022-09-28T05:19:07.188Z,1.00
2022-09-28T05:21:34.032Z,1.00
2022-09-28T05:24:00.992Z,1.00
2022-09-28T05:26:27.772Z,1.00
2022-09-28T05:28:54.632Z,1.00
2022-09-28T05:31:21.596Z,1.00
2022-09-28T05:33:49.157Z,1.00
2022-09-28T05:36:16.046Z,99.90
2022-09-28T05:38:42.863Z,99.90
2022-09-28T05:41:09.776Z,1.00
2022-09-28T05:43:36.878Z,1.00
2022-09-28T05:46:04.230Z,1.00
2022-09-28T05:48:31.322Z,1.00
2022-09-28T05:51:00.815Z,1.00
2022-09-28T05:53:27.617Z,1.00
2022-09-28T05:55:59.231Z,1.00
2022-09-28T05:58:26.060Z,1.00
2022-09-28T06:00:57.255Z,99.90
2022-09-28T06:03:24.562Z,1.00
2022-09-28T06:05:51.455Z,99.90
2022-09-28T06:08:18.709Z,1.00
2022-09-28T06:10:45.687Z,1.00
2022-09-28T06:13:12.574Z,99.90
2022-09-28T06:15:42.251Z,1.00
2022-09-28T06:18:16.887Z,1.00
2022-09-28T06:20:43.725Z,99.90
2022-09-28T06:23:11.684Z,99.90
2022-09-28T06:25:38.893Z,99.90
2022-09-28T06:28:09.463Z,99.90
2022-09-28T06:30:39.135Z,86.90
2022-09-28T06:33:08.415Z,70.00
2022-09-28T06:35:35.846Z,1.00
2022-09-28T06:38:03.208Z,1.00
2022-09-28T06:40:30.174Z,1.00
2022-09-28T06:43:16.183Z,1.00
2022-09-28T06:45:43.899Z,1.00
2022-09-28T06:48:11.638Z,1.00
2022-09-28T06:50:40.964Z,1.00
2022-09-28T06:53:10.720Z,99.90
2022-09-28T06:55:41.974Z,99.90
2022-09-28T06:58:15.137Z,57.80
2022-09-28T07:00:42.308Z,47.40
2022-09-28T07:03:13.082Z,32.60
2022-09-28T07:05:45.352Z,20.20
2022-09-28T07:08:12.832Z,15.30
2022-09-28T07:10:44.335Z,10.60
2022-09-28T07:13:29.710Z,7.20
2022-09-28T07:16:02.002Z,4.90
2022-09-28T07:18:32.031Z,1.00
2022-09-28T07:20:59.826Z,1.00
2022-09-28T07:23:28.600Z,1.00
2022-09-28T07:25:55.561Z,1.00
2022-09-28T07:28:22.566Z,1.00
2022-09-28T07:30:49.519Z,1.00
2022-09-28T07:33:17.607Z,1.00
2022-09-28T07:35:55.719Z,1.00
2022-09-28T07:38:22.883Z,1.00
2022-09-28T07:41:08.571Z,9.40
2022-09-28T07:43:35.467Z,1.00
2022-09-28T07:46:02.486Z,1.00
2022-09-28T07:48:37.896Z,1.00
2022-09-28T07:51:05.356Z,1.00
2022-09-28T07:53:32.455Z,1.00
2022-09-28T07:56:06.319Z,1.00
2022-09-28T07:58:35.837Z,8.40
2022-09-28T08:01:08.808Z,1.00
2022-09-28T08:03:36.496Z,1.00
2022-09-28T08:06:07.257Z,1.00
2022-09-28T08:08:35.440Z,1.00
2022-09-28T08:11:02.778Z,1.00
2022-09-28T08:13:31.140Z,1.00
2022-09-28T08:16:01.825Z,1.00
2022-09-28T08:18:28.630Z,1.00
2022-09-28T08:21:13.823Z,1.00
2022-09-28T08:23:40.908Z,1.00
2022-09-28T08:26:10.989Z,1.00
2022-09-28T08:28:40.463Z,1.00
2022-09-28T08:31:09.214Z,1.00
2022-09-28T08:33:36.556Z,1.00
2022-09-28T08:36:07.224Z,1.00
2022-09-28T08:38:34.115Z,1.00
2022-09-28T08:41:17.714Z,1.00
2022-09-28T08:44:12.136Z,1.00
2022-09-28T08:47:01.203Z,1.00
2022-09-28T08:49:34.985Z,1.00
2022-09-28T08:52:13.592Z,1.00
2022-09-28T08:54:51.735Z,1.00
2022-09-28T08:57:29.739Z,1.00
2022-09-28T08:59:59.845Z,1.00
2022-09-28T09:02:34.064Z,1.00
2022-09-28T09:05:03.531Z,1.00
2022-09-28T09:07:59.164Z,1.00
2022-09-28T09:10:52.133Z,1.00
2022-09-28T09:13:45.865Z,1.00
2022-09-28T09:16:29.590Z,1.00
2022-09-28T09:19:21.936Z,1.00
2022-09-28T09:21:57.981Z,1.00
2022-09-28T09:24:37.288Z,1.00
2022-09-28T09:27:26.827Z,1.00
2022-09-28T09:30:20.417Z,1.00
2022-09-28T09:32:53.483Z,1.00
2022-09-28T09:36:02.416Z,1.00
2022-09-28T09:38:46.587Z,1.00
2022-09-28T09:41:37.222Z,1.00
2022-09-28T09:44:03.968Z,1.00
2022-09-28T09:46:47.218Z,1.00
2022-09-28T09:49:14.009Z,1.00
2022-09-28T09:51:52.728Z,1.00
2022-09-28T09:54:29.090Z,1.00
2022-09-28T09:57:06.494Z,1.00
2022-09-28T09:59:39.171Z,1.00
2022-09-28T10:02:24.478Z,1.00
2022-09-28T10:04:55.873Z,1.00
2022-09-28T10:07:28.814Z,1.00
2022-09-28T10:10:00.682Z,1.00
2022-09-28T10:12:28.697Z,1.00
2022-09-28T10:14:56.155Z,1.00
2022-09-28T10:17:27.317Z,1.00
2022-09-28T10:19:56.828Z,1.00
2022-09-28T10:22:26.248Z,1.00
2022-09-28T10:24:56.867Z,1.00
2022-09-28T10:27:35.878Z,1.00
2022-09-28T10:30:12.775Z,1.00
2022-09-28T10:32:44.489Z,1.00
2022-09-28T10:35:20.181Z,1.00
2022-09-28T10:37:54.293Z,1.00
2022-09-28T10:40:30.522Z,1.00
2022-09-28T10:43:20.150Z,1.00
2022-09-28T10:45:47.514Z,1.00
2022-09-28T10:48:19.223Z,1.00
2022-09-28T10:51:04.528Z,1.00
2022-09-28T10:53:31.889Z,1.00
2022-09-28T10:56:03.279Z,1.00
2022-09-28T10:58:34.004Z,1.00
2022-09-28T11:01:09.973Z,1.00
2022-09-28T11:04:00.950Z,1.00
2022-09-28T11:06:36.999Z,1.00
2022-09-28T11:09:18.588Z,1.00
2022-09-28T11:11:45.573Z,1.00
2022-09-28T11:14:39.717Z,1.00
2022-09-28T11:17:42.013Z,1.00
2022-09-28T11:20:27.469Z,1.00
2022-09-28T11:22:57.939Z,1.00
2022-09-28T11:25:30.232Z,1.00
2022-09-28T11:28:04.501Z,1.00
2022-09-28T11:30:54.968Z,1.00
2022-09-28T11:33:43.060Z,1.00
2022-09-28T11:36:18.451Z,1.00
2022-09-28T11:38:48.170Z,1.00
2022-09-28T11:41:41.468Z,1.00
2022-09-28T11:44:29.513Z,1.00
2022-09-28T11:47:26.221Z,1.00
2022-09-28T11:50:23.844Z,1.00
2022-09-28T11:53:11.082Z,1.00
2022-09-28T11:55:50.438Z,1.00
2022-09-28T11:58:40.660Z,1.00
2022-09-28T12:01:45.778Z,1.00
2022-09-28T12:04:36.931Z,1.00
2022-09-28T12:07:31.528Z,1.00
2022-09-28T12:09:58.330Z,1.00
2022-09-28T12:12:33.823Z,1.00
2022-09-28T12:15:15.188Z,1.00
2022-09-28T12:17:54.401Z,1.00
2022-09-28T12:20:31.720Z,1.00
2022-09-28T12:23:11.282Z,1.00
2022-09-28T12:25:48.118Z,1.00
2022-09-28T12:28:35.254Z,1.00
2022-09-28T12:31:26.326Z,1.00
2022-09-28T12:33:53.207Z,1.00
2022-09-28T12:36:36.731Z,1.00
2022-09-28T12:39:35.764Z,1.00
2022-09-28T12:42:20.593Z,1.00
2022-09-28T12:44:59.257Z,1.00
2022-09-28T12:48:04.477Z,1.00
2022-09-28T12:50:57.115Z,1.00
2022-09-28T12:53:52.977Z,1.00
2022-09-28T12:56:40.030Z,1.00
2022-09-28T12:59:25.279Z,1.00
2022-09-28T13:02:25.869Z,1.00
2022-09-28T13:05:07.992Z,1.00
2022-09-28T13:07:37.979Z,1.00
2022-09-28T13:10:32.579Z,1.00
2022-09-28T13:12:59.354Z,1.00
2022-09-28T13:15:32.259Z,1.00
2022-09-28T13:18:27.565Z,1.00
2022-09-28T13:21:00.360Z,1.00
2022-09-28T13:23:37.601Z,1.00
2022-09-28T13:26:27.164Z,1.00
2022-09-28T13:29:04.334Z,1.00
2022-09-28T13:31:36.014Z,1.00
2022-09-28T13:34:07.185Z,1.00
2022-09-28T13:36:36.460Z,1.00
2022-09-28T13:39:04.358Z,1.00
2022-09-28T13:41:36.209Z,1.00
2022-09-28T13:44:02.963Z,1.00
2022-09-28T13:46:50.879Z,1.00
2022-09-28T13:49:30.228Z,1.00
2022-09-28T13:52:18.640Z,1.00
2022-09-28T13:54:57.348Z,1.00
2022-09-28T13:57:41.611Z,1.00
2022-09-28T14:00:11.754Z,1.00
2022-09-28T14:02:47.152Z,1.00
2022-09-28T14:05:23.265Z,1.00
2022-09-28T14:08:11.474Z,1.00
2022-09-28T14:10:49.455Z,1.00
2022-09-28T14:13:42.297Z,1.00
2022-09-28T14:16:18.157Z,1.00
2022-09-28T14:18:57.991Z,1.00
2022-09-28T14:21:49.503Z,1.00
2022-09-28T14:24:40.886Z,1.00
2022-09-28T14:27:17.360Z,1.00
2022-09-28T14:29:44.275Z,1.00
2022-09-28T14:32:11.092Z,1.00
2022-09-28T14:34:44.450Z,1.00
2022-09-28T14:38:13.858Z,1.00
2022-09-28T14:41:11.063Z,1.00
2022-09-28T14:43:43.752Z,1.00
2022-09-28T14:46:20.020Z,1.00
2022-09-28T14:48:55.149Z,1.00
2022-09-28T14:51:25.519Z,1.00
2022-09-28T14:53:54.671Z,1.00
2022-09-28T14:56:22.448Z,1.00
2022-09-28T14:58:57.071Z,1.00
2022-09-28T15:01:25.821Z,1.00
2022-09-28T15:03:56.564Z,1.00
2022-09-28T15:06:24.519Z,1.00
2022-09-28T15:08:51.652Z,1.00
2022-09-28T15:11:22.754Z,1.00
2022-09-28T15:13:53.387Z,1.00
2022-09-28T15:16:24.140Z,1.00
2022-09-28T15:19:12.065Z,1.00
2022-09-28T15:21:43.438Z,1.00
2022-09-28T15:24:32.973Z,1.00
2022-09-28T15:27:13.996Z,1.00
2022-09-28T15:29:41.085Z,1.00
2022-09-28T15:32:24.303Z,1.00
2022-09-28T15:34:58.527Z,1.00
2022-09-28T15:37:33.939Z,1.00
2022-09-28T15:40:03.584Z,1.00
2022-09-28T15:42:36.741Z,1.00
2022-09-28T15:45:08.728Z,1.00
2022-09-28T15:47:38.761Z,1.00
2022-09-28T15:50:28.004Z,1.00
2022-09-28T15:53:00.715Z,1.00
2022-09-28T15:55:33.406Z,1.00
2022-09-28T15:58:22.995Z,1.00
2022-09-28T16:01:12.242Z,1.00
2022-09-28T16:03:39.511Z,1.00
2022-09-28T16:06:10.181Z,1.00
2022-09-28T16:08:36.919Z,1.00
2022-09-28T16:11:36.503Z,1.00
2022-09-28T16:14:18.323Z,1.00
2022-09-28T16:16:50.391Z,1.00
2022-09-28T16:19:36.214Z,1.00
2022-09-28T16:22:13.038Z,1.00
2022-09-28T16:24:40.180Z,1.00
2022-09-28T16:27:25.023Z,1.00
2022-09-28T16:30:12.276Z,1.00
2022-09-28T16:32:49.927Z,1.00
2022-09-28T16:35:21.647Z,1.00
2022-09-28T16:37:56.546Z,1.00
2022-09-28T16:40:23.882Z,1.00
2022-09-28T16:42:51.012Z,1.00
2022-09-28T16:45:20.880Z,1.00
2022-09-28T16:47:52.886Z,1.00
2022-09-28T16:50:21.346Z,1.00
2022-09-28T16:53:19.596Z,1.00
2022-09-28T16:55:49.036Z,1.00
2022-09-28T16:58:16.211Z,1.00
2022-09-28T17:00:43.528Z,1.00
2022-09-28T17:03:15.723Z,1.00
2022-09-28T17:05:43.273Z,1.00
2022-09-28T17:08:15.681Z,1.00
2022-09-28T17:13:45.153Z,4.40
2022-09-28T17:16:13.697Z,7.30
2022-09-28T17:18:41.051Z,7.00
2022-09-28T17:21:15.924Z,7.30
2022-09-28T17:23:44.040Z,7.10
2022-09-28T17:26:30.783Z,9.20
2022-09-28T17:28:59.443Z,4.40
2022-09-28T17:31:26.806Z,4.50
2022-09-28T17:33:54.542Z,17.80
2022-09-28T17:36:22.171Z,3.00
2022-09-28T17:38:51.727Z,3.30
2022-09-28T17:41:21.109Z,3.10
2022-09-28T17:43:48.821Z,2.90
2022-09-28T17:46:34.188Z,2.10
2022-09-28T17:49:03.566Z,1.90
2022-09-28T17:51:32.759Z,3.10
2022-09-28T17:54:01.177Z,2.60
2022-09-28T17:56:32.184Z,4.60
2022-09-28T17:59:03.076Z,4.00
2022-09-28T18:02:18.704Z,5.30
2022-09-28T18:04:52.273Z,6.70
2022-09-28T18:07:19.523Z,8.10
2022-09-28T18:09:46.394Z,7.70
2022-09-28T18:12:13.995Z,8.70
2022-09-28T18:14:40.824Z,9.00
2022-09-28T18:18:09.492Z,9.60
2022-09-28T18:20:37.227Z,11.50
2022-09-28T18:23:04.187Z,9.60
2022-09-28T18:25:31.504Z,10.30
2022-09-28T18:28:00.098Z,11.00
2022-09-28T18:30:27.856Z,12.50
2022-09-28T18:35:23.206Z,12.60
2022-09-28T18:37:50.563Z,13.70
2022-09-28T18:40:18.025Z,14.30
2022-09-28T18:42:44.999Z,14.70
2022-09-28T18:45:12.032Z,14.40
2022-09-28T18:49:21.361Z,15.40
2022-09-28T18:51:48.315Z,14.30
2022-09-28T18:54:15.656Z,13.30
2022-09-28T18:57:48.247Z,15.50
2022-09-28T19:00:15.430Z,15.60
2022-09-28T19:02:42.789Z,15.70
2022-09-28T19:05:09.980Z,15.20
2022-09-28T19:07:36.899Z,14.10
2022-09-28T19:10:04.244Z,14.00
2022-09-28T19:12:32.161Z,14.10
2022-09-28T19:14:59.779Z,15.90
2022-09-28T19:17:26.939Z,14.80
2022-09-28T19:19:53.900Z,14.30
2022-09-28T19:22:20.856Z,15.30
2022-09-28T19:24:47.899Z,13.90
2022-09-28T19:27:14.811Z,13.60
2022-09-28T19:29:41.767Z,13.40
2022-09-28T19:32:08.798Z,14.50
2022-09-28T19:34:35.734Z,14.50
2022-09-28T19:37:03.942Z,15.50
2022-09-28T19:39:31.085Z,15.60
2022-09-28T19:41:59.828Z,15.70
2022-09-28T19:44:28.659Z,15.40
2022-09-28T19:47:06.635Z,16.50
2022-09-28T19:49:38.310Z,16.90
2022-09-28T19:52:16.051Z,14.50
2022-09-28T19:54:56.552Z,14.10
2022-09-28T19:57:32.571Z,14.10
2022-09-28T20:00:03.399Z,12.80
2022-09-28T20:02:30.914Z,13.20
2022-09-28T20:04:58.007Z,14.30
2022-09-28T20:07:24.980Z,28.40
2022-09-28T20:09:51.871Z,15.10
2022-09-28T20:12:18.924Z,15.80
2022-09-28T20:14:45.863Z,15.20
2022-09-28T20:17:12.905Z,15.20
2022-09-28T20:19:39.732Z,16.50
2022-09-28T20:22:06.666Z,16.10
2022-09-28T20:24:33.618Z,15.90
2022-09-28T20:27:01.506Z,15.60
2022-09-28T20:29:29.240Z,16.10
2022-09-28T20:31:56.731Z,17.10
2022-09-28T20:34:23.689Z,16.50
2022-09-28T20:36:50.539Z,15.80
2022-09-28T20:39:17.626Z,16.60
2022-09-28T20:41:46.093Z,18.00
2022-09-28T20:44:13.166Z,19.50
2022-09-28T20:46:40.144Z,19.20
2022-09-28T20:49:07.748Z,19.00
2022-09-28T20:51:34.745Z,18.90
2022-09-28T20:54:02.254Z,18.50
2022-09-28T20:56:43.339Z,19.50
2022-09-28T20:59:12.390Z,19.50
2022-09-28T21:01:40.016Z,19.40
2022-09-28T21:04:08.807Z,20.50
2022-09-28T21:06:38.138Z,21.80
2022-09-28T21:09:06.447Z,20.80
2022-09-28T21:11:35.683Z,21.40
2022-09-28T21:14:05.735Z,20.90
2022-09-28T21:16:33.990Z,21.10
2022-09-28T21:19:01.008Z,21.40
2022-09-28T21:21:28.190Z,21.50
2022-09-28T21:23:56.394Z,21.70
2022-09-28T21:26:26.405Z,22.20
2022-09-28T21:29:00.407Z,23.10
2022-09-28T21:31:30.792Z,21.90
2022-09-28T21:33:58.374Z,23.70
2022-09-28T21:36:26.000Z,22.50
2022-09-28T21:38:55.157Z,21.60
2022-09-28T21:41:22.907Z,21.90
2022-09-28T21:43:50.011Z,23.10
2022-09-28T21:46:17.616Z,22.40
2022-09-28T21:48:44.617Z,22.00
2022-09-28T21:51:14.518Z,22.70
2022-09-28T21:53:41.363Z,21.10
2022-09-28T21:56:11.210Z,20.50
2022-09-28T21:58:38.340Z,20.80
2022-09-28T22:01:14.795Z,20.80
2022-09-28T22:03:44.060Z,20.60
2022-09-28T22:06:11.907Z,21.30
2022-09-28T22:08:39.555Z,21.20
2022-09-28T22:11:12.502Z,20.90
2022-09-28T22:13:51.060Z,20.60
2022-09-28T22:16:20.124Z,20.80
2022-09-28T22:18:47.603Z,21.60
2022-09-28T22:21:17.573Z,21.00
2022-09-28T22:23:45.076Z,21.40
2022-09-28T22:26:19.099Z,20.90
2022-09-28T22:28:49.447Z,20.20
2022-09-28T22:31:18.119Z,20.70
2022-09-28T22:33:45.105Z,23.60
2022-09-28T22:36:15.004Z,19.10
2022-09-28T22:38:42.474Z,17.80
2022-09-28T22:41:10.010Z,18.40
2022-09-28T22:43:36.852Z,17.90
2022-09-28T22:46:06.281Z,17.00
2022-09-28T22:48:33.608Z,17.70
2022-09-28T22:51:01.077Z,18.60
2022-09-28T22:53:31.046Z,17.90
2022-09-28T22:56:00.520Z,20.40
2022-09-28T22:58:27.809Z,20.70
2022-09-28T23:00:56.395Z,20.20
2022-09-28T23:03:23.636Z,20.80
2022-09-28T23:05:55.123Z,20.00
2022-09-28T23:08:22.959Z,19.60
2022-09-28T23:10:50.837Z,20.70
2022-09-28T23:13:18.291Z,20.60
2022-09-28T23:15:59.343Z,20.20
2022-09-28T23:18:29.247Z,19.10
2022-09-28T23:20:58.605Z,20.50
2022-09-28T23:23:25.520Z,20.20
2022-09-28T23:25:53.150Z,20.30
2022-09-28T23:28:21.620Z,19.90
2022-09-28T23:30:48.769Z,19.80
2022-09-28T23:33:17.077Z,20.30
2022-09-28T23:35:44.393Z,22.40
2022-09-28T23:38:17.691Z,23.00
2022-09-28T23:40:47.730Z,22.10
2022-09-28T23:43:15.345Z,22.60
2022-09-28T23:45:45.581Z,23.80
2022-09-28T23:48:14.961Z,24.60
2022-09-28T23:50:45.143Z,25.30
2022-09-28T23:53:14.349Z,25.00
2022-09-28T23:55:42.794Z,26.00
2022-09-28T23:58:10.935Z,25.60
